Aeroporto :
LOGIN :

Iscrizione | Disclaimer

   EN    FR    IT 

 










Sommario :    VFR   VFR Marginale   IFR   IFR Intensivo   IFR Molto Intensivo
Visibilità : 
Base nubi : 
>= 8 km
>= 3000ft
5 / 8 km
1000 / 3000 ft
1500m / 5 km
500 / 1000 ft
800 / 1500m
200 / 500 ft
< 800m
< 200 ft
Simboli :   Temporali  Nebbia  Neve Forte  Precipitazioni Forti  Vento > 20 kt
SIGMETs :   Varie  Temporali  Ghiacco  Turbolenza  Onda orograficha  Ceneri Vulcaniche






- Altitudine del aeroporto : 0 ft


ENOA - Oseberg A Platform

ULTIMO METAR :
  • 210720Z 21040KT 9999 -SHRA SCT020 BKN055 07/03 Q0989 W///S6

METARs OBSOLETI :
  • 210650Z 22038KT 9999 BKN020CB 07/03 Q0989 W///S6
  • 210620Z 22040KT 9999 FEW020CB SCT054 07/03 Q0989 W///S6
  • 210550Z 23033KT 9999 BKN020CB 06/03 Q0990 RESHRA W///S6
  • 210520Z 24030KT 9999 SCT025 06/02 Q0990 W///S6
  • 210452Z 24031KT 9999 SCT030 07/01 Q0991 W///S6

TAF ENOA
Valido dal 21 a 06 ore il 22 a 06 ore UTC


2106/2206 25042KT 9999 -SHRA FEW015TCU BKN030
BECMG 2107/2109 20050G60KT
TEMPO 2107/2113 4000 RADZ BKN010
BECMG 2114/2116 24040KT
BECMG 2200/2202 24050KT
TEMPO 2200/2206 24045G55KT 4000 SHRAGS BKN015CB



MetMap, La meteo Aeronautica in un colpo d'occhio ! - Copyright ORBIFLY Dicembre 2007 - Disclaimer

ORBIFLY MET'MAP TEAM :

Programmazione e sviluppo : Alexandra Zaïnal
Concezione : Baudouin d'Aumeries
Aiuto per la programmazione : Marc-Olivier Méhu
Supporto tecnico e logistico : Manuel Goepfert
Aiuto per la traduzione : Arnaldo La Scala

Contatto : metmap@orbifly.com




FONTI E CREDITI :

   NOAA